createdAt,value
2022-10-29T00:00:14.731Z,99.99
2022-10-29T00:01:14.774Z,99.99
2022-10-29T00:02:14.694Z,99.99
2022-10-29T00:03:14.779Z,99.99
2022-10-29T00:04:14.695Z,99.99
2022-10-29T00:05:14.675Z,99.99
2022-10-29T00:06:14.674Z,99.99
2022-10-29T00:07:14.641Z,99.99
2022-10-29T00:08:14.629Z,99.99
2022-10-29T00:09:14.600Z,99.99
2022-10-29T00:10:14.596Z,99.99
2022-10-29T00:11:14.619Z,99.99
2022-10-29T00:12:14.563Z,99.99
2022-10-29T00:13:14.576Z,99.99
2022-10-29T00:14:14.541Z,99.99
2022-10-29T00:15:14.531Z,99.99
2022-10-29T00:16:14.522Z,99.99
2022-10-29T00:17:14.524Z,99.99
2022-10-29T00:18:14.489Z,99.93
2022-10-29T00:19:14.493Z,99.93
2022-10-29T00:20:14.468Z,99.83
2022-10-29T00:21:14.465Z,99.73
2022-10-29T00:22:14.454Z,99.63
2022-10-29T00:23:14.434Z,99.63
2022-10-29T00:24:14.425Z,99.52
2022-10-29T00:25:14.426Z,99.52
2022-10-29T00:26:14.385Z,99.52
2022-10-29T00:27:14.374Z,99.42
2022-10-29T00:28:14.394Z,99.42
2022-10-29T00:29:14.367Z,99.38
2022-10-29T00:30:14.352Z,99.38
2022-10-29T00:31:14.313Z,99.27
2022-10-29T00:32:14.452Z,99.27
2022-10-29T00:33:14.361Z,99.27
2022-10-29T00:34:14.293Z,99.17
2022-10-29T00:35:14.258Z,99.07
2022-10-29T00:36:14.252Z,99.07
2022-10-29T00:37:14.254Z,98.97
2022-10-29T00:38:14.223Z,98.86
2022-10-29T00:39:14.235Z,98.86
2022-10-29T00:40:14.207Z,98.86
2022-10-29T00:41:14.184Z,98.77
2022-10-29T00:42:14.291Z,98.56
2022-10-29T00:43:14.156Z,98.56
2022-10-29T00:44:14.168Z,98.56
2022-10-29T00:45:14.144Z,98.66
2022-10-29T00:46:14.134Z,98.66
2022-10-29T00:47:14.114Z,98.36
2022-10-29T00:48:14.095Z,98.16
2022-10-29T00:49:14.077Z,98.05
2022-10-29T00:50:14.093Z,97.85
2022-10-29T00:51:14.059Z,97.69
2022-10-29T00:52:14.051Z,97.60
2022-10-29T00:53:14.025Z,97.49
2022-10-29T00:54:14.009Z,97.60
2022-10-29T00:55:14.001Z,97.69
2022-10-29T00:56:14.005Z,97.89
2022-10-29T00:57:14.008Z,98.20
2022-10-29T00:58:13.967Z,98.30
2022-10-29T00:59:13.964Z,98.41
2022-10-29T01:00:13.932Z,98.61
2022-10-29T01:01:14.014Z,98.50
2022-10-29T01:02:13.992Z,98.41
2022-10-29T01:03:13.979Z,98.30
2022-10-29T01:04:13.939Z,98.20
2022-10-29T01:05:13.869Z,98.10
2022-10-29T01:06:13.869Z,98.00
2022-10-29T01:07:13.855Z,98.00
2022-10-29T01:08:13.854Z,97.89
2022-10-29T01:09:13.805Z,97.80
2022-10-29T01:10:13.838Z,97.80
2022-10-29T01:11:13.796Z,97.69
2022-10-29T01:12:13.775Z,97.69
2022-10-29T01:13:13.841Z,97.60
2022-10-29T01:14:13.760Z,97.60
2022-10-29T01:15:13.759Z,97.49
2022-10-29T01:16:13.742Z,97.49
2022-10-29T01:17:14.152Z,97.49
2022-10-29T01:18:13.703Z,97.49
2022-10-29T01:19:13.755Z,97.53
2022-10-29T01:20:13.672Z,97.53
2022-10-29T01:21:13.696Z,97.53
2022-10-29T01:22:13.646Z,97.53
2022-10-29T01:23:13.636Z,97.53
2022-10-29T01:24:13.641Z,97.53
2022-10-29T01:25:13.603Z,97.64
2022-10-29T01:26:13.614Z,97.74
2022-10-29T01:27:13.616Z,97.74
2022-10-29T01:28:13.569Z,97.64
2022-10-29T01:29:13.557Z,97.53
2022-10-29T01:30:13.557Z,97.53
2022-10-29T01:31:13.521Z,97.58
2022-10-29T01:32:13.534Z,97.58
2022-10-29T01:33:13.554Z,97.69
2022-10-29T01:34:13.484Z,97.78
2022-10-29T01:35:13.497Z,97.89
2022-10-29T01:36:13.458Z,98.09
2022-10-29T01:37:13.461Z,98.30
2022-10-29T01:38:13.483Z,98.30
2022-10-29T01:39:13.429Z,98.30
2022-10-29T01:40:13.402Z,98.39
2022-10-29T01:41:13.403Z,98.39
2022-10-29T01:42:13.380Z,98.39
2022-10-29T01:43:13.472Z,98.50
2022-10-29T01:44:13.361Z,98.50
2022-10-29T01:45:13.358Z,98.50
2022-10-29T01:46:13.325Z,98.44
2022-10-29T01:47:13.310Z,98.44
2022-10-29T01:48:13.304Z,98.44
2022-10-29T01:49:13.294Z,98.44
2022-10-29T01:50:13.299Z,98.44
2022-10-29T01:51:13.284Z,98.44
2022-10-29T01:52:13.238Z,98.54
2022-10-29T01:53:13.238Z,98.54
2022-10-29T01:54:13.223Z,98.75
2022-10-29T01:55:13.235Z,98.85
2022-10-29T01:56:13.206Z,98.95
2022-10-29T01:57:13.179Z,98.95
2022-10-29T01:58:13.219Z,98.91
2022-10-29T01:59:22.932Z,98.91
2022-10-29T02:00:13.208Z,98.91
2022-10-29T02:01:13.290Z,98.70
2022-10-29T02:02:13.148Z,98.60
2022-10-29T02:03:13.093Z,98.60
2022-10-29T02:04:13.080Z,98.39
2022-10-29T02:05:13.077Z,98.39
2022-10-29T02:06:13.086Z,98.30
2022-10-29T02:07:13.053Z,98.30
2022-10-29T02:08:13.030Z,98.30
2022-10-29T02:09:13.020Z,98.19
2022-10-29T02:10:13.026Z,98.09
2022-10-29T02:11:13.011Z,98.09
2022-10-29T02:12:13.013Z,97.99
2022-10-29T02:13:13.017Z,97.89
2022-10-29T02:14:12.951Z,97.78
2022-10-29T02:15:12.938Z,97.58
2022-10-29T02:16:12.928Z,97.63
2022-10-29T02:17:12.939Z,97.53
2022-10-29T02:18:12.895Z,97.63
2022-10-29T02:19:13.412Z,97.63
2022-10-29T02:20:12.884Z,97.73
2022-10-29T02:21:12.855Z,97.98
2022-10-29T02:22:12.875Z,98.08
2022-10-29T02:23:12.838Z,98.28
2022-10-29T02:24:12.809Z,98.39
2022-10-29T02:25:12.876Z,98.59
2022-10-29T02:26:12.798Z,98.75
2022-10-29T02:27:12.774Z,98.75
2022-10-29T02:28:12.816Z,98.75
2022-10-29T02:29:12.801Z,98.75
2022-10-29T02:30:12.746Z,98.65
2022-10-29T02:31:12.733Z,98.65
2022-10-29T02:32:12.714Z,98.54
2022-10-29T02:33:12.720Z,98.44
2022-10-29T02:34:12.708Z,98.28
2022-10-29T02:35:12.697Z,98.18
2022-10-29T02:36:12.674Z,98.18
2022-10-29T02:37:12.653Z,98.28
2022-10-29T02:38:12.640Z,98.39
2022-10-29T02:39:12.628Z,98.59
2022-10-29T02:40:12.630Z,98.69
2022-10-29T02:41:12.609Z,98.59
2022-10-29T02:42:12.597Z,98.59
2022-10-29T02:43:12.614Z,98.59
2022-10-29T02:44:12.588Z,98.49
2022-10-29T02:45:12.538Z,98.39
2022-10-29T02:46:12.555Z,98.28
2022-10-29T02:47:12.542Z,98.28
2022-10-29T02:48:12.496Z,98.39
2022-10-29T02:49:12.484Z,98.49
2022-10-29T02:50:12.491Z,98.49
2022-10-29T02:51:12.469Z,98.59
2022-10-29T02:52:12.483Z,98.49
2022-10-29T02:53:12.431Z,98.49
2022-10-29T02:54:12.431Z,98.49
2022-10-29T02:55:12.409Z,98.49
2022-10-29T02:56:12.402Z,98.49
2022-10-29T02:57:12.405Z,98.39
2022-10-29T02:58:12.437Z,98.28
2022-10-29T02:59:12.362Z,98.18
2022-10-29T03:00:12.348Z,97.98
2022-10-29T03:01:12.384Z,97.78
2022-10-29T03:02:12.440Z,97.57
2022-10-29T03:03:12.313Z,97.57
2022-10-29T03:04:12.300Z,97.67
2022-10-29T03:05:12.282Z,97.82
2022-10-29T03:06:12.274Z,97.92
2022-10-29T03:07:12.265Z,98.02
2022-10-29T03:08:12.255Z,98.02
2022-10-29T03:09:12.233Z,98.13
2022-10-29T03:10:12.226Z,98.13
2022-10-29T03:11:12.198Z,98.13
2022-10-29T03:12:12.193Z,98.23
2022-10-29T03:13:12.183Z,98.33
2022-10-29T03:14:12.181Z,98.43
2022-10-29T03:15:12.154Z,98.54
2022-10-29T03:16:12.168Z,98.64
2022-10-29T03:17:12.117Z,98.74
2022-10-29T03:18:12.109Z,98.64
2022-10-29T03:19:12.090Z,98.64
2022-10-29T03:20:12.080Z,98.43
2022-10-29T03:21:12.087Z,98.23
2022-10-29T03:22:12.068Z,98.23
2022-10-29T03:23:12.041Z,98.13
2022-10-29T03:24:12.038Z,98.13
2022-10-29T03:25:12.018Z,98.13
2022-10-29T03:26:12.029Z,98.02
2022-10-29T03:27:11.988Z,97.82
2022-10-29T03:28:11.986Z,97.77
2022-10-29T03:29:11.965Z,97.97
2022-10-29T03:30:11.964Z,97.97
2022-10-29T03:31:11.941Z,98.11
2022-10-29T03:32:11.953Z,98.22
2022-10-29T03:33:11.925Z,98.32
2022-10-29T03:34:11.903Z,98.43
2022-10-29T03:35:11.911Z,98.63
2022-10-29T03:36:11.930Z,98.93
2022-10-29T03:37:11.903Z,99.14
2022-10-29T03:38:11.869Z,99.24
2022-10-29T03:39:11.839Z,99.44
2022-10-29T03:40:11.814Z,99.54
2022-10-29T03:41:11.816Z,99.54
2022-10-29T03:42:11.804Z,99.24
2022-10-29T03:43:11.772Z,99.14
2022-10-29T03:44:11.787Z,99.04
2022-10-29T03:45:11.793Z,98.93
2022-10-29T03:46:11.739Z,99.14
2022-10-29T03:47:11.713Z,99.24
2022-10-29T03:48:11.715Z,99.44
2022-10-29T03:49:11.697Z,99.44
2022-10-29T03:50:11.714Z,99.65
2022-10-29T03:51:11.687Z,99.75
2022-10-29T03:52:11.727Z,99.85
2022-10-29T03:53:11.645Z,99.95
2022-10-29T03:54:11.631Z,99.75
2022-10-29T03:55:11.638Z,99.44
2022-10-29T03:56:11.611Z,99.14
2022-10-29T03:57:11.595Z,98.93
2022-10-29T03:58:11.611Z,98.68
2022-10-29T03:59:11.575Z,98.57
2022-10-29T04:00:11.552Z,98.47
2022-10-29T04:01:11.588Z,98.61
2022-10-29T04:02:11.800Z,98.72
2022-10-29T04:03:11.508Z,98.72
2022-10-29T04:04:11.492Z,98.46
2022-10-29T04:05:11.498Z,98.25
2022-10-29T04:06:11.496Z,98.30
2022-10-29T04:07:11.456Z,98.71
2022-10-29T04:08:11.449Z,99.32
2022-10-29T04:09:11.461Z,99.73
2022-10-29T04:10:11.445Z,99.99
2022-10-29T04:11:11.423Z,99.99
2022-10-29T04:12:11.455Z,99.99
2022-10-29T04:13:11.396Z,99.99
2022-10-29T04:14:11.418Z,99.99
2022-10-29T04:15:11.376Z,99.99
2022-10-29T04:16:11.324Z,99.99
2022-10-29T04:17:11.347Z,99.99
2022-10-29T04:18:11.327Z,99.99
2022-10-29T04:19:11.291Z,99.99
2022-10-29T04:20:21.187Z,99.99
2022-10-29T04:24:32.522Z,99.99
2022-10-29T04:29:20.075Z,99.79
2022-10-29T04:30:20.065Z,99.68
2022-10-29T04:31:20.065Z,99.52
2022-10-29T04:32:20.034Z,99.43
2022-10-29T04:33:20.029Z,99.52
2022-10-29T04:34:20.016Z,99.73
2022-10-29T04:35:19.996Z,99.99
2022-10-29T04:36:20.017Z,99.99
2022-10-29T04:37:19.972Z,99.99
2022-10-29T04:38:19.959Z,99.99
2022-10-29T04:39:22.560Z,99.99
2022-10-29T04:40:19.951Z,99.99
2022-10-29T04:41:19.922Z,99.99
2022-10-29T04:42:19.899Z,99.99
2022-10-29T04:43:19.909Z,99.99
2022-10-29T04:44:19.886Z,99.99
2022-10-29T04:45:19.887Z,99.93
2022-10-29T04:46:19.850Z,99.73
2022-10-29T04:47:19.838Z,99.78
2022-10-29T04:48:19.836Z,99.78
2022-10-29T04:49:19.885Z,99.78
2022-10-29T04:50:19.839Z,99.88
2022-10-29T04:51:19.777Z,99.99
2022-10-29T04:52:19.773Z,99.99
2022-10-29T04:53:19.770Z,99.99
2022-10-29T04:54:19.742Z,99.99
2022-10-29T04:55:19.726Z,99.99
2022-10-29T04:56:19.743Z,99.99
2022-10-29T04:57:19.710Z,99.99
2022-10-29T04:58:19.706Z,99.99
2022-10-29T04:59:19.677Z,99.99
2022-10-29T05:00:19.692Z,99.99
2022-10-29T05:01:19.993Z,99.99
2022-10-29T05:02:19.633Z,99.99
2022-10-29T05:03:19.638Z,99.99
2022-10-29T05:04:19.625Z,99.99
2022-10-29T05:05:19.638Z,99.99
2022-10-29T05:06:19.589Z,99.99
2022-10-29T05:07:19.588Z,99.99
2022-10-29T05:08:19.551Z,99.99
2022-10-29T05:09:19.569Z,99.99
2022-10-29T05:10:19.523Z,99.99
2022-10-29T05:11:19.509Z,99.99
2022-10-29T05:12:19.522Z,99.99
2022-10-29T05:13:19.500Z,99.99
2022-10-29T05:14:19.514Z,99.99
2022-10-29T05:15:19.451Z,99.99
2022-10-29T05:16:19.447Z,99.99
2022-10-29T05:17:19.438Z,99.89
2022-10-29T05:18:19.436Z,99.79
2022-10-29T05:19:19.429Z,99.58
2022-10-29T05:20:19.402Z,99.48
2022-10-29T05:21:19.375Z,99.32
2022-10-29T05:22:19.379Z,99.32
2022-10-29T05:23:19.378Z,99.32
2022-10-29T05:24:19.368Z,99.43
2022-10-29T05:25:19.340Z,99.52
2022-10-29T05:26:19.316Z,99.52
2022-10-29T05:27:19.312Z,99.52
2022-10-29T05:28:19.306Z,99.52
2022-10-29T05:29:19.270Z,99.32
2022-10-29T05:30:19.269Z,99.16
2022-10-29T05:31:19.265Z,99.16
2022-10-29T05:32:19.242Z,99.16
2022-10-29T05:33:19.245Z,99.01
2022-10-29T05:34:19.213Z,98.90
2022-10-29T05:35:19.205Z,99.15
2022-10-29T05:36:19.222Z,99.36
2022-10-29T05:37:19.168Z,99.87
2022-10-29T05:38:19.183Z,99.99
2022-10-29T05:39:19.143Z,99.99
2022-10-29T05:40:19.166Z,99.99
2022-10-29T05:41:19.130Z,99.99
2022-10-29T05:42:19.126Z,99.99
2022-10-29T05:43:19.114Z,99.99
2022-10-29T05:44:19.085Z,99.99
2022-10-29T05:45:19.096Z,99.99
2022-10-29T05:46:19.057Z,99.99
2022-10-29T05:47:19.028Z,99.99
2022-10-29T05:48:19.023Z,99.99
2022-10-29T05:49:19.036Z,99.99
2022-10-29T05:50:19.088Z,99.99
2022-10-29T05:51:18.992Z,99.99
2022-10-29T05:52:18.984Z,99.99
2022-10-29T05:53:18.947Z,99.99
2022-10-29T05:54:18.973Z,99.88
2022-10-29T05:55:18.937Z,99.37
2022-10-29T05:56:18.913Z,99.21
2022-10-29T05:57:18.955Z,99.01
2022-10-29T05:58:18.899Z,99.01
2022-10-29T05:59:18.877Z,99.11
2022-10-29T06:00:18.872Z,99.01
2022-10-29T06:01:18.884Z,99.01
2022-10-29T06:02:19.021Z,99.21
2022-10-29T06:03:18.818Z,99.31
2022-10-29T06:04:18.856Z,99.52
2022-10-29T06:05:18.835Z,99.41
2022-10-29T06:06:18.839Z,99.41
2022-10-29T06:07:18.778Z,99.21
2022-10-29T06:08:18.927Z,98.90
2022-10-29T06:09:18.742Z,98.70
2022-10-29T06:10:18.747Z,98.80
2022-10-29T06:11:18.736Z,98.90
2022-10-29T06:12:18.700Z,99.01
2022-10-29T06:13:18.741Z,99.11
2022-10-29T06:14:18.708Z,99.21
2022-10-29T06:15:18.690Z,99.31
2022-10-29T06:16:18.661Z,99.21
2022-10-29T06:17:18.645Z,99.31
2022-10-29T06:18:18.660Z,99.21
2022-10-29T06:19:18.639Z,99.21
2022-10-29T06:20:18.615Z,99.31
2022-10-29T06:21:18.584Z,99.31
2022-10-29T06:22:18.580Z,99.31
2022-10-29T06:23:18.604Z,99.41
2022-10-29T06:24:18.556Z,99.31
2022-10-29T06:25:18.531Z,99.31
2022-10-29T06:26:18.530Z,99.41
2022-10-29T06:27:18.527Z,99.52
2022-10-29T06:28:18.532Z,99.72
2022-10-29T06:29:18.487Z,99.93
2022-10-29T06:30:18.473Z,99.99
2022-10-29T06:31:18.470Z,99.99
2022-10-29T06:32:18.461Z,99.99
2022-10-29T06:33:18.440Z,99.99
2022-10-29T06:34:18.439Z,99.99
2022-10-29T06:35:18.435Z,99.99
2022-10-29T06:36:18.391Z,99.99
2022-10-29T06:37:18.390Z,99.88
2022-10-29T06:38:18.375Z,99.72
2022-10-29T06:39:18.371Z,99.72
2022-10-29T06:40:18.366Z,99.82
2022-10-29T06:41:18.324Z,99.99
2022-10-29T06:42:18.312Z,99.99
2022-10-29T06:43:18.318Z,99.99
2022-10-29T06:44:18.296Z,99.99
2022-10-29T06:45:18.302Z,99.99
2022-10-29T06:46:18.255Z,99.99
2022-10-29T06:47:18.249Z,99.99
2022-10-29T06:48:22.123Z,99.99
2022-10-29T06:49:18.217Z,99.99
2022-10-29T06:50:18.253Z,99.99
2022-10-29T06:51:18.235Z,99.99
2022-10-29T06:52:18.196Z,99.99
2022-10-29T06:53:18.174Z,99.99
2022-10-29T06:54:18.156Z,99.99
2022-10-29T06:55:18.155Z,99.99
2022-10-29T06:56:18.153Z,99.99
2022-10-29T06:57:18.120Z,99.99
2022-10-29T06:58:18.100Z,99.99
2022-10-29T06:59:18.081Z,99.99
2022-10-29T07:00:18.102Z,99.99
2022-10-29T07:01:18.097Z,99.99
2022-10-29T07:02:18.073Z,99.99
2022-10-29T07:03:18.043Z,99.99
2022-10-29T07:04:18.019Z,99.99
2022-10-29T07:05:18.032Z,99.99
2022-10-29T07:06:17.994Z,99.99
2022-10-29T07:07:18.064Z,99.99
2022-10-29T07:08:18.010Z,99.99
2022-10-29T07:09:17.961Z,99.99
2022-10-29T07:10:17.937Z,99.99
2022-10-29T07:11:17.934Z,99.99
2022-10-29T07:12:17.939Z,99.99
2022-10-29T07:13:17.931Z,99.99
2022-10-29T07:14:17.899Z,99.99
2022-10-29T07:15:17.880Z,99.99
2022-10-29T07:16:17.883Z,99.99
2022-10-29T07:17:17.859Z,99.99
2022-10-29T07:18:17.840Z,99.99
2022-10-29T07:19:17.838Z,99.99
2022-10-29T07:20:17.847Z,99.99
2022-10-29T07:21:17.845Z,99.99
2022-10-29T07:22:17.816Z,99.99
2022-10-29T07:23:17.806Z,99.99
2022-10-29T07:24:17.779Z,99.99
2022-10-29T07:25:17.745Z,99.99
2022-10-29T07:26:17.842Z,99.90
2022-10-29T07:27:17.758Z,99.75
2022-10-29T07:28:17.711Z,99.44
2022-10-29T07:29:17.694Z,99.34
2022-10-29T07:30:17.721Z,99.24
2022-10-29T07:31:17.701Z,99.14
2022-10-29T07:32:17.722Z,99.04
2022-10-29T07:33:17.660Z,98.93
2022-10-29T07:34:17.634Z,98.83
2022-10-29T07:35:17.603Z,98.52
2022-10-29T07:36:17.626Z,98.43
2022-10-29T07:37:17.602Z,98.32
2022-10-29T07:38:17.625Z,98.32
2022-10-29T07:39:17.619Z,98.32
2022-10-29T07:40:17.543Z,98.43
2022-10-29T07:41:17.544Z,98.43
2022-10-29T07:42:17.536Z,98.27
2022-10-29T07:43:17.521Z,98.43
2022-10-29T07:44:17.528Z,98.58
2022-10-29T07:45:17.481Z,98.68
2022-10-29T07:46:17.475Z,98.89
2022-10-29T07:47:17.480Z,98.99
2022-10-29T07:48:17.448Z,99.19
2022-10-29T07:49:17.428Z,99.40
2022-10-29T07:50:17.409Z,99.60
2022-10-29T07:51:17.396Z,99.60
2022-10-29T07:52:17.410Z,99.60
2022-10-29T07:53:17.391Z,99.70
2022-10-29T07:54:17.385Z,99.91
2022-10-29T07:55:17.386Z,99.99
2022-10-29T07:56:17.342Z,99.99
2022-10-29T07:57:17.376Z,99.99
2022-10-29T07:58:17.296Z,99.99
2022-10-29T07:59:17.324Z,99.99
2022-10-29T08:00:17.295Z,99.99
2022-10-29T08:01:17.549Z,99.99
2022-10-29T08:02:17.334Z,99.99
2022-10-29T08:03:17.248Z,99.91
2022-10-29T08:04:17.225Z,99.87
2022-10-29T08:05:17.225Z,99.97
2022-10-29T08:06:17.198Z,99.99
2022-10-29T08:07:17.224Z,99.99
2022-10-29T08:08:17.200Z,99.99
2022-10-29T08:09:17.182Z,99.97
2022-10-29T08:10:17.188Z,99.92
2022-10-29T08:11:17.148Z,99.82
2022-10-29T08:12:17.126Z,99.72
2022-10-29T08:13:17.129Z,99.41
2022-10-29T08:14:20.268Z,99.01
2022-10-29T08:15:17.099Z,98.70
2022-10-29T08:16:17.069Z,98.30
2022-10-29T08:17:17.049Z,97.99
2022-10-29T08:18:17.084Z,97.78
2022-10-29T08:19:17.034Z,97.48
2022-10-29T08:20:17.051Z,97.44
2022-10-29T08:21:17.004Z,97.53
2022-10-29T08:22:16.994Z,97.53
2022-10-29T08:23:17.017Z,97.53
2022-10-29T08:24:16.972Z,97.60
2022-10-29T08:25:16.971Z,97.49
2022-10-29T08:26:17.018Z,97.49
2022-10-29T08:27:16.953Z,97.39
2022-10-29T08:28:16.938Z,97.19
2022-10-29T08:29:16.924Z,96.78
2022-10-29T08:30:16.905Z,96.47
2022-10-29T08:31:16.909Z,96.33
2022-10-29T08:32:16.871Z,96.33
2022-10-29T08:33:16.865Z,96.12
2022-10-29T08:34:16.814Z,96.12
2022-10-29T08:35:16.856Z,96.38
2022-10-29T08:36:16.808Z,96.44
2022-10-29T08:37:16.806Z,96.34
2022-10-29T08:38:16.808Z,96.23
2022-10-29T08:39:16.800Z,95.99
2022-10-29T08:40:16.748Z,95.89
2022-10-29T08:41:16.744Z,95.79
2022-10-29T08:42:16.736Z,95.48
2022-10-29T08:43:16.785Z,95.28
2022-10-29T08:44:16.711Z,95.23
2022-10-29T08:45:16.711Z,95.23
2022-10-29T08:46:16.673Z,95.09
2022-10-29T08:47:16.669Z,94.89
2022-10-29T08:48:16.675Z,94.43
2022-10-29T08:49:16.648Z,94.03
2022-10-29T08:50:16.630Z,93.83
2022-10-29T08:51:16.622Z,92.97
2022-10-29T08:52:16.625Z,92.36
2022-10-29T08:53:23.338Z,92.16
2022-10-29T08:54:30.350Z,90.44
2022-10-29T08:55:16.571Z,88.51
2022-10-29T08:56:16.564Z,87.71
2022-10-29T08:57:16.567Z,88.37
2022-10-29T08:58:16.537Z,90.20
2022-10-29T08:59:16.509Z,90.20
2022-10-29T09:00:16.513Z,88.68
2022-10-29T09:01:16.688Z,88.64
2022-10-29T09:02:16.536Z,90.82
2022-10-29T09:03:16.479Z,91.08
2022-10-29T09:04:16.441Z,90.63
2022-10-29T09:05:16.433Z,89.92
2022-10-29T09:06:16.422Z,88.87
2022-10-29T09:07:16.436Z,88.12
2022-10-29T09:08:16.454Z,86.36
2022-10-29T09:09:16.387Z,85.25
2022-10-29T09:10:16.356Z,84.71
2022-10-29T09:11:16.362Z,84.97
2022-10-29T09:12:16.381Z,84.43
2022-10-29T09:13:16.341Z,83.69
2022-10-29T09:14:16.312Z,82.28
2022-10-29T09:15:16.294Z,81.84
2022-10-29T09:16:16.289Z,81.99
2022-10-29T09:17:16.262Z,80.29
2022-10-29T09:18:16.288Z,80.15
2022-10-29T09:19:16.260Z,80.25
2022-10-29T09:20:16.224Z,79.81
2022-10-29T09:21:16.208Z,78.60
2022-10-29T09:22:16.196Z,77.96
2022-10-29T09:23:16.224Z,77.06
2022-10-29T09:24:16.189Z,77.06
2022-10-29T09:25:16.161Z,78.36
2022-10-29T09:26:16.153Z,79.00
2022-10-29T09:27:16.143Z,78.80
2022-10-29T09:28:16.137Z,79.58
2022-10-29T09:29:16.132Z,80.73
2022-10-29T09:30:16.102Z,81.37
2022-10-29T09:31:16.078Z,82.51
2022-10-29T09:32:16.096Z,83.66
2022-10-29T09:33:16.072Z,83.87
2022-10-29T09:34:16.130Z,83.76
2022-10-29T09:35:16.057Z,83.62
2022-10-29T09:36:16.012Z,84.33
2022-10-29T09:37:16.024Z,83.93
2022-10-29T09:38:16.016Z,83.62
2022-10-29T09:39:16.012Z,82.42
2022-10-29T09:40:15.968Z,82.71
2022-10-29T09:41:15.956Z,83.28
2022-10-29T09:42:15.952Z,83.18
2022-10-29T09:43:15.992Z,83.08
2022-10-29T09:44:15.945Z,82.94
2022-10-29T09:45:15.907Z,81.19
2022-10-29T09:46:15.888Z,80.29
2022-10-29T09:47:15.891Z,80.55
2022-10-29T09:48:15.880Z,80.65
2022-10-29T09:49:15.855Z,80.51
2022-10-29T09:50:15.867Z,79.57
2022-10-29T09:51:15.824Z,77.66
2022-10-29T09:52:15.818Z,77.22
2022-10-29T09:53:15.951Z,77.02
2022-10-29T09:54:15.802Z,77.09
2022-10-29T09:55:15.778Z,75.68
2022-10-29T09:56:15.760Z,75.88
2022-10-29T09:57:15.772Z,74.77
2022-10-29T09:58:15.768Z,74.94
2022-10-29T09:59:15.727Z,74.57
2022-10-29T10:00:15.728Z,75.18
2022-10-29T10:01:15.763Z,75.98
2022-10-29T10:02:15.740Z,75.68
2022-10-29T10:03:15.708Z,76.08
2022-10-29T10:04:15.655Z,76.38
2022-10-29T10:05:15.688Z,76.32
2022-10-29T10:06:15.629Z,77.02
2022-10-29T10:07:15.662Z,78.03
2022-10-29T10:08:15.613Z,76.92
2022-10-29T10:09:15.635Z,77.46
2022-10-29T10:10:15.604Z,77.56
2022-10-29T10:11:15.584Z,77.32
2022-10-29T10:12:15.554Z,77.66
2022-10-29T10:13:17.199Z,78.12
2022-10-29T10:14:15.542Z,77.52
2022-10-29T10:15:15.556Z,77.72
2022-10-29T10:16:15.516Z,76.92
2022-10-29T10:17:15.530Z,76.42
2022-10-29T10:18:15.519Z,76.32
2022-10-29T10:19:15.471Z,76.62
2022-10-29T10:20:15.460Z,76.82
2022-10-29T10:21:15.461Z,76.72
2022-10-29T10:22:16.332Z,76.72
2022-10-29T10:23:15.446Z,76.72
2022-10-29T10:24:15.414Z,77.02
2022-10-29T10:25:15.468Z,77.02
2022-10-29T10:26:15.391Z,77.42
2022-10-29T10:27:15.386Z,77.46
2022-10-29T10:28:15.383Z,77.46
2022-10-29T10:29:15.342Z,77.36
2022-10-29T10:30:15.325Z,76.72
2022-10-29T10:31:15.317Z,77.32
2022-10-29T10:32:15.297Z,77.42
2022-10-29T10:33:15.353Z,77.52
2022-10-29T10:34:15.301Z,76.32
2022-10-29T10:35:15.281Z,76.42
2022-10-29T10:36:15.252Z,77.26
2022-10-29T10:37:15.235Z,78.06
2022-10-29T10:38:15.223Z,77.70
2022-10-29T10:39:15.238Z,78.40
2022-10-29T10:40:15.195Z,79.71
2022-10-29T10:41:15.188Z,80.31
2022-10-29T10:42:15.174Z,81.41
2022-10-29T10:43:15.158Z,80.81
2022-10-29T10:44:15.174Z,79.30
2022-10-29T10:45:15.161Z,78.36
2022-10-29T10:46:15.141Z,77.86
2022-10-29T10:47:15.134Z,77.76
2022-10-29T10:48:15.151Z,77.62
2022-10-29T10:49:15.083Z,77.22
2022-10-29T10:50:15.065Z,77.12
2022-10-29T10:51:15.056Z,76.62
2022-10-29T10:52:15.068Z,76.42
2022-10-29T10:53:15.042Z,75.31
2022-10-29T10:54:15.025Z,75.92
2022-10-29T10:55:15.013Z,76.68
2022-10-29T10:56:14.998Z,77.39
2022-10-29T10:57:14.993Z,76.38
2022-10-29T10:58:14.964Z,76.48
2022-10-29T10:59:14.989Z,75.98
2022-10-29T11:00:14.945Z,76.18
2022-10-29T11:01:15.103Z,76.28
2022-10-29T11:02:14.954Z,76.58
2022-10-29T11:03:14.983Z,76.89
2022-10-29T11:04:14.900Z,76.25
2022-10-29T11:05:14.895Z,76.25
2022-10-29T11:06:14.868Z,76.65
2022-10-29T11:07:14.853Z,77.05
2022-10-29T11:08:14.822Z,77.15
2022-10-29T11:09:14.844Z,77.05
2022-10-29T11:10:14.850Z,77.25
2022-10-29T11:11:14.794Z,75.95
2022-10-29T11:12:14.787Z,76.34
2022-10-29T11:13:14.771Z,76.04
2022-10-29T11:14:14.762Z,75.45
2022-10-29T11:15:14.763Z,74.94
2022-10-29T11:16:14.756Z,74.94
2022-10-29T11:17:14.725Z,74.84
2022-10-29T11:18:14.705Z,74.90
2022-10-29T11:19:14.699Z,74.24
2022-10-29T11:20:14.690Z,74.34
2022-10-29T11:21:14.732Z,74.80
2022-10-29T11:22:14.654Z,75.21
2022-10-29T11:23:14.644Z,75.41
2022-10-29T11:24:14.634Z,75.21
2022-10-29T11:25:14.631Z,74.10
2022-10-29T11:26:14.597Z,74.01
2022-10-29T11:27:14.622Z,75.60
2022-10-29T11:28:14.562Z,76.11
2022-10-29T11:29:14.582Z,75.91
2022-10-29T11:30:14.607Z,71.80
2022-10-29T11:31:14.544Z,71.09
2022-10-29T11:32:14.576Z,72.00
2022-10-29T11:34:14.501Z,72.50
2022-10-29T11:35:14.556Z,71.90
2022-10-29T11:36:14.477Z,71.80
2022-10-29T11:37:14.488Z,72.40
2022-10-29T11:38:14.463Z,72.50
2022-10-29T11:39:14.425Z,73.03
2022-10-29T11:40:14.557Z,73.64
2022-10-29T11:41:14.416Z,75.14
2022-10-29T11:42:14.416Z,73.60
2022-10-29T11:43:14.412Z,73.20
2022-10-29T11:44:14.367Z,73.60
2022-10-29T11:45:14.990Z,73.80
2022-10-29T11:46:14.355Z,74.30
2022-10-29T11:47:14.356Z,74.20
2022-10-29T11:48:19.026Z,74.01
2022-10-29T11:49:14.325Z,74.47
2022-10-29T11:50:14.340Z,74.47
2022-10-29T11:51:14.287Z,74.51
2022-10-29T11:52:14.273Z,75.37
2022-10-29T11:53:14.255Z,76.67
2022-10-29T11:54:14.232Z,75.87
2022-10-29T11:55:14.295Z,76.17
2022-10-29T11:56:14.238Z,75.97
2022-10-29T11:57:14.209Z,75.17
2022-10-29T11:58:14.193Z,75.17
2022-10-29T11:59:14.167Z,75.47
2022-10-29T12:00:14.148Z,75.57
2022-10-29T12:01:14.225Z,75.57
2022-10-29T12:02:14.136Z,76.47
2022-10-29T12:03:14.149Z,75.37
2022-10-29T12:04:15.802Z,75.77
2022-10-29T12:05:14.145Z,75.37
2022-10-29T12:06:14.107Z,75.43
2022-10-29T12:07:14.094Z,74.63
2022-10-29T12:08:14.086Z,74.43
2022-10-29T12:09:14.050Z,74.84
2022-10-29T12:10:14.045Z,75.43
2022-10-29T12:11:14.064Z,75.54
2022-10-29T12:12:14.083Z,75.13
2022-10-29T12:13:13.986Z,75.74
2022-10-29T12:14:13.997Z,75.13
2022-10-29T12:15:13.974Z,75.93
2022-10-29T12:16:13.959Z,75.54
2022-10-29T12:17:13.980Z,74.84
2022-10-29T12:18:14.021Z,75.43
2022-10-29T12:19:13.940Z,75.34
2022-10-29T12:20:13.903Z,75.04
2022-10-29T12:21:13.890Z,75.23
2022-10-29T12:22:13.873Z,74.93
2022-10-29T12:23:15.615Z,74.33
2022-10-29T12:24:13.873Z,74.93
2022-10-29T12:25:13.855Z,75.04
2022-10-29T12:26:13.821Z,74.03
2022-10-29T12:27:13.816Z,74.13
2022-10-29T12:28:13.823Z,74.54
2022-10-29T12:29:13.806Z,74.33
2022-10-29T12:30:13.767Z,74.23
2022-10-29T12:31:13.764Z,73.90
2022-10-29T12:32:13.749Z,74.10
2022-10-29T12:33:13.739Z,74.50
2022-10-29T12:34:13.743Z,73.70
2022-10-29T12:35:13.755Z,74.30
2022-10-29T12:36:13.700Z,74.90
2022-10-29T12:37:13.693Z,74.40
2022-10-29T12:38:13.658Z,75.50
2022-10-29T12:39:13.662Z,74.10
2022-10-29T12:40:13.685Z,74.33
2022-10-29T12:41:13.634Z,74.40
2022-10-29T12:42:13.652Z,75.23
2022-10-29T12:43:13.633Z,75.04
2022-10-29T12:44:13.599Z,75.54
2022-10-29T12:45:13.583Z,75.54
2022-10-29T12:46:19.990Z,75.54
2022-10-29T12:47:13.583Z,75.40
2022-10-29T12:48:13.572Z,75.30
2022-10-29T12:49:13.581Z,75.40
2022-10-29T12:50:13.520Z,76.10
2022-10-29T12:51:13.491Z,76.20
2022-10-29T12:52:13.531Z,75.80
2022-10-29T12:53:13.482Z,75.70
2022-10-29T12:54:13.478Z,76.70
2022-10-29T12:55:13.476Z,75.70
2022-10-29T12:56:16.329Z,76.10
2022-10-29T12:57:13.469Z,75.10
2022-10-29T12:58:13.407Z,74.60
2022-10-29T12:59:13.393Z,74.80
2022-10-29T13:00:13.385Z,75.60